createdAt,value
2019-05-19T00:00:12.680Z,19.90
2019-05-19T00:02:43.284Z,18.63
2019-05-19T00:05:13.723Z,19.33
2019-05-19T00:07:44.086Z,18.67
2019-05-19T00:10:14.757Z,19.97
2019-05-19T00:12:45.301Z,17.20
2019-05-19T00:15:15.744Z,20.23
2019-05-19T00:17:46.220Z,20.00
2019-05-19T00:20:16.607Z,20.20
2019-05-19T00:22:46.990Z,19.00
2019-05-19T00:25:17.457Z,18.70
2019-05-19T00:27:47.905Z,18.77
2019-05-19T00:30:18.347Z,19.63
2019-05-19T00:32:48.714Z,19.30
2019-05-19T00:35:19.163Z,19.60
2019-05-19T00:37:49.457Z,20.40
2019-05-19T00:40:19.891Z,19.27
2019-05-19T00:42:50.335Z,20.40
2019-05-19T00:45:20.874Z,20.37
2019-05-19T00:47:51.319Z,19.40
2019-05-19T00:50:21.734Z,19.27
2019-05-19T00:52:52.174Z,19.10
2019-05-19T00:55:22.593Z,17.90
2019-05-19T00:57:53.335Z,19.30
2019-05-19T01:00:23.717Z,19.83
2019-05-19T01:02:54.367Z,20.03
2019-05-19T01:05:24.727Z,20.83
2019-05-19T01:07:55.071Z,20.50
2019-05-19T01:10:25.507Z,20.90
2019-05-19T01:12:55.864Z,20.57
2019-05-19T01:15:26.324Z,19.77
2019-05-19T01:17:56.796Z,21.23
2019-05-19T01:20:27.139Z,22.27
2019-05-19T01:22:57.484Z,22.97
2019-05-19T01:25:27.868Z,23.37
2019-05-19T01:27:58.296Z,23.97
2019-05-19T01:30:28.708Z,24.20
2019-05-19T01:32:58.987Z,24.73
2019-05-19T01:35:29.416Z,24.70
2019-05-19T01:37:59.846Z,25.60
2019-05-19T01:40:30.311Z,26.07
2019-05-19T01:43:00.819Z,26.00
2019-05-19T01:45:31.155Z,25.43
2019-05-19T01:48:01.522Z,26.53
2019-05-19T01:50:31.808Z,25.43
2019-05-19T01:53:02.858Z,25.90
2019-05-19T01:55:33.330Z,27.30
2019-05-19T01:58:03.770Z,25.97
2019-05-19T02:00:34.119Z,25.77
2019-05-19T02:03:04.647Z,25.23
2019-05-19T02:05:36.046Z,25.53
2019-05-19T02:08:06.467Z,24.70
2019-05-19T02:10:36.735Z,22.90
2019-05-19T02:13:07.172Z,22.47
2019-05-19T02:15:37.531Z,24.03
2019-05-19T02:18:07.895Z,25.43
2019-05-19T02:20:38.320Z,25.97
2019-05-19T02:23:08.746Z,27.33
2019-05-19T02:25:39.195Z,26.07
2019-05-19T02:28:09.466Z,25.40
2019-05-19T02:30:39.827Z,25.97
2019-05-19T02:33:10.164Z,26.03
2019-05-19T02:35:40.506Z,28.30
2019-05-19T02:38:10.934Z,27.07
2019-05-19T02:40:43.119Z,27.90
2019-05-19T02:43:14.830Z,28.57
2019-05-19T02:45:48.109Z,27.97
2019-05-19T02:48:19.687Z,31.80
2019-05-19T02:50:52.973Z,28.97
2019-05-19T02:53:25.551Z,31.37
2019-05-19T02:55:56.354Z,30.93
2019-05-19T02:58:27.325Z,29.40
2019-05-19T03:00:57.681Z,31.30
2019-05-19T03:03:28.036Z,30.77
2019-05-19T03:05:58.502Z,30.17
2019-05-19T03:08:28.880Z,30.43
2019-05-19T03:10:59.271Z,30.43
2019-05-19T03:13:29.664Z,33.87
2019-05-19T03:16:00.163Z,32.20
2019-05-19T03:18:31.185Z,30.67
2019-05-19T03:21:11.135Z,31.07
2019-05-19T03:23:33.558Z,30.43
2019-05-19T03:26:05.277Z,32.90
2019-05-19T03:28:35.577Z,31.77
2019-05-19T03:31:22.378Z,31.37
2019-05-19T03:33:53.359Z,31.67
2019-05-19T03:36:23.652Z,33.37
2019-05-19T03:38:53.903Z,32.87
2019-05-19T03:41:24.292Z,33.33
2019-05-19T03:43:54.618Z,33.03
2019-05-19T03:46:24.895Z,35.03
2019-05-19T03:48:55.244Z,33.73
2019-05-19T03:51:30.836Z,34.50
2019-05-19T03:53:57.623Z,32.43
2019-05-19T03:56:27.875Z,33.20
2019-05-19T03:58:58.235Z,33.67
2019-05-19T04:01:28.667Z,34.13
2019-05-19T04:03:59.103Z,33.33
2019-05-19T04:06:29.461Z,33.87
2019-05-19T04:08:59.820Z,34.13
2019-05-19T04:11:30.091Z,33.00
2019-05-19T04:14:00.544Z,32.83
2019-05-19T04:16:30.883Z,35.80
2019-05-19T04:19:02.362Z,32.77
2019-05-19T04:21:47.626Z,33.17
2019-05-19T04:24:04.930Z,34.60
2019-05-19T04:26:35.176Z,34.77
2019-05-19T04:29:06.603Z,34.93
2019-05-19T04:31:36.900Z,36.03
2019-05-19T04:34:07.245Z,35.30
2019-05-19T04:36:37.605Z,38.03
2019-05-19T04:39:08.238Z,38.20
2019-05-19T04:41:40.297Z,39.60
2019-05-19T04:44:10.586Z,41.13
2019-05-19T04:46:40.873Z,42.20
2019-05-19T04:49:11.250Z,43.83
2019-05-19T04:51:41.593Z,41.80
2019-05-19T04:54:11.886Z,44.63
2019-05-19T04:56:42.250Z,43.37
2019-05-19T04:59:12.714Z,45.67
2019-05-19T05:01:43.109Z,43.63
2019-05-19T05:04:13.562Z,44.70
2019-05-19T05:06:43.847Z,43.10
2019-05-19T05:09:14.138Z,44.07
2019-05-19T05:11:44.555Z,44.80
2019-05-19T05:14:14.898Z,45.10
2019-05-19T05:16:45.339Z,44.83
2019-05-19T05:19:15.699Z,44.37
2019-05-19T05:21:46.026Z,44.93
2019-05-19T05:24:16.523Z,44.30
2019-05-19T05:26:46.980Z,43.17
2019-05-19T05:29:17.336Z,45.90
2019-05-19T05:31:47.717Z,45.03
2019-05-19T05:34:18.060Z,45.03
2019-05-19T05:36:48.420Z,43.90
2019-05-19T05:39:18.855Z,44.20
2019-05-19T05:41:49.204Z,44.83
2019-05-19T05:44:19.461Z,44.60
2019-05-19T05:46:49.854Z,45.60
2019-05-19T05:49:20.200Z,45.40
2019-05-19T05:51:50.651Z,46.13
2019-05-19T05:54:20.992Z,44.83
2019-05-19T05:56:51.380Z,45.10
2019-05-19T05:59:21.744Z,45.23
2019-05-19T06:01:52.028Z,44.37
2019-05-19T06:04:22.391Z,45.10
2019-05-19T06:06:52.979Z,46.13
2019-05-19T06:09:23.415Z,43.77
2019-05-19T06:11:53.694Z,44.33
2019-05-19T06:14:23.999Z,44.23
2019-05-19T06:16:54.400Z,45.47
2019-05-19T06:19:24.686Z,45.07
2019-05-19T06:21:55.089Z,43.73
2019-05-19T06:24:25.487Z,43.63
2019-05-19T06:26:56.533Z,43.40
2019-05-19T06:29:26.935Z,43.50
2019-05-19T06:32:01.714Z,43.90
2019-05-19T06:34:32.165Z,41.60
2019-05-19T06:37:14.833Z,40.03
2019-05-19T06:39:46.144Z,40.33
2019-05-19T06:42:16.482Z,41.50
2019-05-19T06:44:46.908Z,39.47
2019-05-19T06:47:17.348Z,37.45
2019-05-19T06:49:47.735Z,38.80
2019-05-19T06:52:18.007Z,38.67
2019-05-19T06:54:48.343Z,39.33
2019-05-19T06:57:18.767Z,37.85
2019-05-19T06:59:49.239Z,35.73
2019-05-19T07:02:20.751Z,36.40
2019-05-19T07:04:51.245Z,39.15
2019-05-19T07:07:21.574Z,37.40
2019-05-19T07:09:58.505Z,39.05
2019-05-19T07:12:24.068Z,36.70
2019-05-19T07:14:54.368Z,35.38
2019-05-19T07:17:24.808Z,35.98
2019-05-19T07:19:55.129Z,33.53
2019-05-19T07:22:25.558Z,36.38
2019-05-19T07:24:55.985Z,35.23
2019-05-19T07:27:26.408Z,35.05
2019-05-19T07:29:56.776Z,32.53
2019-05-19T07:32:27.040Z,32.98
2019-05-19T07:34:57.416Z,37.00
2019-05-19T07:37:27.844Z,35.73
2019-05-19T07:39:58.213Z,35.67
2019-05-19T07:42:28.605Z,36.48
2019-05-19T07:44:58.908Z,35.25
2019-05-19T07:47:29.361Z,31.27
2019-05-19T07:50:00.428Z,29.52
2019-05-19T07:52:31.544Z,30.45
2019-05-19T07:55:02.734Z,31.97
2019-05-19T07:57:33.198Z,30.52
2019-05-19T08:00:03.915Z,30.55
2019-05-19T08:02:34.404Z,30.75
2019-05-19T08:05:04.882Z,28.90
2019-05-19T08:07:35.273Z,28.55
2019-05-19T08:10:06.045Z,29.37
2019-05-19T08:12:36.433Z,28.00
2019-05-19T08:15:07.468Z,27.40
2019-05-19T08:17:37.937Z,27.25
2019-05-19T08:20:09.514Z,25.72
2019-05-19T08:22:39.953Z,24.98
2019-05-19T08:25:10.577Z,21.97
2019-05-19T08:27:40.965Z,24.00
2019-05-19T08:30:11.790Z,27.45
2019-05-19T08:32:42.217Z,22.15
2019-05-19T08:35:12.654Z,20.57
2019-05-19T08:37:43.153Z,19.92
2019-05-19T08:40:13.598Z,20.35
2019-05-19T08:42:44.039Z,24.25
2019-05-19T08:45:14.583Z,22.67
2019-05-19T08:47:44.947Z,22.45
2019-05-19T08:50:15.925Z,14.03
2019-05-19T08:52:46.403Z,15.70
2019-05-19T08:55:16.839Z,15.13
2019-05-19T08:57:47.240Z,15.23
2019-05-19T09:00:17.655Z,14.80
2019-05-19T09:02:48.066Z,15.60
2019-05-19T09:05:18.416Z,14.65
2019-05-19T09:07:48.873Z,14.07
2019-05-19T09:10:19.364Z,13.93
2019-05-19T09:12:49.728Z,14.13
2019-05-19T09:15:20.138Z,13.13
2019-05-19T09:17:50.623Z,13.80
2019-05-19T09:20:20.939Z,13.90
2019-05-19T09:22:51.644Z,13.00
2019-05-19T09:25:22.003Z,12.00
2019-05-19T09:27:52.523Z,10.80
2019-05-19T09:30:22.935Z,10.63
2019-05-19T09:32:53.410Z,11.88
2019-05-19T09:35:23.847Z,11.75
2019-05-19T09:37:54.225Z,12.18
2019-05-19T09:40:26.604Z,13.55
2019-05-19T09:42:56.618Z,14.38
2019-05-19T09:45:26.969Z,13.95
2019-05-19T09:47:57.313Z,12.05
2019-05-19T09:50:28.034Z,12.05
2019-05-19T09:52:58.365Z,17.10
2019-05-19T09:55:31.545Z,16.52
2019-05-19T09:58:02.045Z,15.13
2019-05-19T10:00:32.593Z,15.85
2019-05-19T10:03:02.962Z,18.07
2019-05-19T10:05:33.310Z,15.08
2019-05-19T10:08:03.677Z,14.03
2019-05-19T10:11:18.955Z,12.37
2019-05-19T10:13:49.414Z,11.08
2019-05-19T10:16:20.472Z,11.20
2019-05-19T10:18:50.793Z,11.65
2019-05-19T10:21:21.174Z,13.28
2019-05-19T10:23:51.588Z,12.43
2019-05-19T10:26:21.964Z,11.38
2019-05-19T10:28:52.621Z,10.55
2019-05-19T10:31:22.939Z,12.73
2019-05-19T10:33:53.349Z,11.55
2019-05-19T10:36:23.706Z,9.18
2019-05-19T10:38:54.073Z,9.15
2019-05-19T10:41:24.412Z,8.85
2019-05-19T10:44:00.893Z,9.53
2019-05-19T10:46:32.294Z,10.55
2019-05-19T10:49:02.732Z,8.75
2019-05-19T10:51:33.087Z,10.00
2019-05-19T10:54:04.129Z,9.65
2019-05-19T10:56:34.607Z,7.87
2019-05-19T10:59:06.084Z,10.03
2019-05-19T11:01:36.815Z,10.70
2019-05-19T11:04:07.216Z,8.60
2019-05-19T11:06:37.628Z,7.45
2019-05-19T11:09:08.332Z,7.65
2019-05-19T11:11:38.681Z,5.95
2019-05-19T11:14:09.036Z,8.05
2019-05-19T11:16:39.409Z,9.10
2019-05-19T11:19:09.712Z,7.20
2019-05-19T11:21:40.123Z,7.50
2019-05-19T11:24:10.507Z,8.05
2019-05-19T11:26:40.774Z,7.50
2019-05-19T11:29:11.135Z,7.22
2019-05-19T11:31:41.568Z,8.48
2019-05-19T11:34:11.919Z,9.03
2019-05-19T11:36:42.204Z,7.90
2019-05-19T11:39:12.501Z,10.70
2019-05-19T11:41:42.899Z,8.33
2019-05-19T11:44:13.312Z,8.45
2019-05-19T11:46:43.696Z,8.03
2019-05-19T11:49:14.106Z,9.03
2019-05-19T11:51:44.455Z,9.08
2019-05-19T11:54:14.848Z,8.18
2019-05-19T11:56:45.321Z,8.08
2019-05-19T11:59:15.668Z,8.53
2019-05-19T12:01:46.028Z,7.08
2019-05-19T12:04:16.365Z,7.75
2019-05-19T12:06:46.755Z,7.95
2019-05-19T12:09:17.244Z,8.53
2019-05-19T12:11:47.512Z,7.87
2019-05-19T12:14:17.916Z,6.97
2019-05-19T12:16:48.364Z,7.67
2019-05-19T12:19:18.805Z,7.83
2019-05-19T12:21:49.149Z,8.90
2019-05-19T12:24:19.536Z,8.28
2019-05-19T12:26:50.060Z,8.95
2019-05-19T12:29:20.441Z,11.95
2019-05-19T12:31:50.826Z,11.10
2019-05-19T12:34:21.161Z,10.40
2019-05-19T12:36:51.587Z,12.23
2019-05-19T12:39:21.934Z,11.78
2019-05-19T12:41:52.375Z,12.13
2019-05-19T12:44:22.673Z,12.47
2019-05-19T12:46:52.987Z,11.95
2019-05-19T12:49:23.343Z,13.20
2019-05-19T12:51:53.780Z,12.28
2019-05-19T12:54:24.196Z,11.38
2019-05-19T12:56:54.701Z,12.03
2019-05-19T12:59:25.115Z,11.80
2019-05-19T13:01:55.581Z,10.65
2019-05-19T13:04:25.914Z,12.28
2019-05-19T13:06:56.358Z,12.45
2019-05-19T13:09:26.650Z,10.98
2019-05-19T13:11:57.138Z,9.43
2019-05-19T13:14:27.490Z,9.35
2019-05-19T13:16:57.855Z,10.65
2019-05-19T13:19:28.369Z,11.00
2019-05-19T13:21:58.844Z,10.32
2019-05-19T13:24:29.746Z,9.68
2019-05-19T13:27:00.125Z,10.28
2019-05-19T13:29:30.552Z,8.95
2019-05-19T13:32:00.984Z,7.85
2019-05-19T13:34:31.404Z,8.25
2019-05-19T13:37:01.888Z,7.75
2019-05-19T13:39:32.340Z,7.67
2019-05-19T13:42:02.756Z,9.13
2019-05-19T13:44:33.144Z,8.60
2019-05-19T13:47:03.743Z,6.60
2019-05-19T13:49:34.298Z,8.08
2019-05-19T13:52:04.715Z,8.03
2019-05-19T13:54:35.143Z,7.00
2019-05-19T13:57:12.227Z,8.43
2019-05-19T13:59:38.551Z,6.55
2019-05-19T14:02:08.948Z,6.15
2019-05-19T14:04:39.360Z,6.57
2019-05-19T14:07:10.776Z,5.05
2019-05-19T14:09:41.129Z,5.42
2019-05-19T14:12:11.498Z,5.97
2019-05-19T14:14:41.837Z,6.08
2019-05-19T14:17:12.279Z,5.67
2019-05-19T14:19:42.620Z,6.72
2019-05-19T14:22:12.966Z,5.58
2019-05-19T14:24:43.432Z,5.25
2019-05-19T14:27:28.876Z,6.00
2019-05-19T14:29:46.597Z,5.55
2019-05-19T14:32:16.965Z,5.47
2019-05-19T14:34:47.257Z,4.12
2019-05-19T14:37:17.611Z,4.20
2019-05-19T14:39:48.090Z,5.60
2019-05-19T14:42:37.522Z,5.72
2019-05-19T14:45:08.497Z,5.33
2019-05-19T14:47:39.182Z,5.28
2019-05-19T14:50:09.687Z,4.70
2019-05-19T14:52:40.108Z,4.72
2019-05-19T14:55:10.537Z,4.45
2019-05-19T14:57:44.971Z,4.17
2019-05-19T15:00:14.905Z,3.85
2019-05-19T15:02:45.365Z,5.20
2019-05-19T15:05:15.782Z,5.12
2019-05-19T15:07:46.073Z,5.53
2019-05-19T15:10:16.597Z,6.75
2019-05-19T15:12:46.902Z,5.30
2019-05-19T15:15:17.913Z,6.20
2019-05-19T15:17:48.283Z,4.05
2019-05-19T15:20:19.193Z,4.12
2019-05-19T15:22:49.580Z,3.72
2019-05-19T15:25:23.211Z,3.85
2019-05-19T15:28:00.703Z,4.17
2019-05-19T15:30:25.773Z,4.33
2019-05-19T15:32:56.064Z,3.37
2019-05-19T15:35:26.416Z,3.33
2019-05-19T15:37:56.688Z,3.08
2019-05-19T15:40:27.117Z,3.20
2019-05-19T15:42:57.400Z,2.80
2019-05-19T15:45:27.809Z,3.05
2019-05-19T15:47:58.260Z,3.25
2019-05-19T15:50:30.103Z,2.70
2019-05-19T15:53:00.575Z,2.83
2019-05-19T15:55:31.461Z,2.95
2019-05-19T15:58:15.578Z,2.95
2019-05-19T16:00:33.944Z,3.08
2019-05-19T16:03:04.408Z,3.07
2019-05-19T16:05:34.857Z,2.57
2019-05-19T16:08:05.372Z,2.80
2019-05-19T16:10:35.733Z,2.70
2019-05-19T16:13:06.184Z,2.52
2019-05-19T16:15:36.592Z,2.80
2019-05-19T16:18:07.030Z,3.07
2019-05-19T16:20:37.360Z,2.70
2019-05-19T16:23:07.745Z,3.53
2019-05-19T16:25:38.085Z,3.02
2019-05-19T16:28:08.521Z,2.50
2019-05-19T16:30:39.077Z,2.47
2019-05-19T16:33:09.482Z,2.40
2019-05-19T16:35:40.015Z,2.10
2019-05-19T16:38:10.356Z,1.90
2019-05-19T16:40:40.719Z,2.07
2019-05-19T16:43:11.142Z,1.80
2019-05-19T16:45:41.459Z,2.00
2019-05-19T16:48:11.908Z,2.60
2019-05-19T16:50:42.359Z,3.10
2019-05-19T16:53:14.657Z,2.50
2019-05-19T16:55:45.400Z,2.17
2019-05-19T16:58:21.101Z,2.30
2019-05-19T17:00:47.899Z,2.10
2019-05-19T17:03:18.243Z,2.00
2019-05-19T17:05:49.878Z,1.90
2019-05-19T17:08:20.239Z,2.10
2019-05-19T17:10:50.600Z,2.37
2019-05-19T17:13:20.972Z,1.80
2019-05-19T17:15:51.412Z,2.00
2019-05-19T17:18:21.688Z,2.10
2019-05-19T17:20:52.136Z,1.87
2019-05-19T17:23:22.489Z,2.00
2019-05-19T17:25:52.863Z,1.87
2019-05-19T17:28:23.224Z,1.90
2019-05-19T17:30:53.617Z,2.03
2019-05-19T17:33:23.968Z,2.60
2019-05-19T17:35:54.318Z,2.70
2019-05-19T17:38:24.606Z,3.13
2019-05-19T17:40:54.982Z,3.67
2019-05-19T17:43:25.290Z,3.90
2019-05-19T17:45:55.909Z,4.63
2019-05-19T17:48:27.005Z,5.13
2019-05-19T17:50:57.606Z,5.20
2019-05-19T17:53:28.091Z,5.10
2019-05-19T17:55:58.856Z,5.90
2019-05-19T17:58:30.162Z,6.80
2019-05-19T18:01:00.584Z,7.20
2019-05-19T18:03:31.116Z,7.50
2019-05-19T18:06:01.526Z,7.43
2019-05-19T18:08:31.780Z,7.90
2019-05-19T18:11:02.229Z,7.30
2019-05-19T18:13:32.550Z,7.80
2019-05-19T18:16:02.889Z,9.03
2019-05-19T18:18:33.238Z,8.73
2019-05-19T18:21:03.703Z,9.60
2019-05-19T18:23:34.215Z,11.20
2019-05-19T18:26:07.178Z,11.20
2019-05-19T18:28:36.824Z,11.73
2019-05-19T18:31:07.264Z,11.47
2019-05-19T18:33:37.799Z,12.17
2019-05-19T18:36:08.283Z,11.40
2019-05-19T18:38:38.672Z,12.40
2019-05-19T18:41:09.046Z,12.90
2019-05-19T18:43:39.402Z,12.07
2019-05-19T18:46:09.698Z,12.30
2019-05-19T18:48:40.247Z,12.50
2019-05-19T18:51:10.798Z,12.67
2019-05-19T18:53:41.230Z,11.57
2019-05-19T18:56:11.585Z,10.07
2019-05-19T18:58:42.320Z,9.10
2019-05-19T19:01:12.795Z,9.37
2019-05-19T19:03:44.237Z,8.17
2019-05-19T19:06:14.665Z,7.63
2019-05-19T19:08:45.090Z,7.80
2019-05-19T19:11:15.765Z,8.10
2019-05-19T19:13:46.145Z,6.50
2019-05-19T19:16:16.501Z,6.37
2019-05-19T19:18:47.057Z,5.90
2019-05-19T19:21:17.426Z,5.73
2019-05-19T19:23:47.730Z,5.30
2019-05-19T19:26:17.990Z,5.60
2019-05-19T19:28:48.389Z,5.10
2019-05-19T19:31:18.747Z,5.50
2019-05-19T19:33:49.202Z,5.43
2019-05-19T19:36:19.545Z,5.50
2019-05-19T19:38:49.905Z,5.00
2019-05-19T19:41:20.313Z,5.70
2019-05-19T19:43:51.352Z,5.77
2019-05-19T19:46:21.689Z,6.10
2019-05-19T19:48:52.037Z,6.40
2019-05-19T19:51:22.650Z,6.63
2019-05-19T19:53:53.017Z,6.57
2019-05-19T19:56:24.355Z,6.13
2019-05-19T19:58:54.717Z,6.50
2019-05-19T20:01:29.009Z,5.53
2019-05-19T20:03:59.461Z,6.53
2019-05-19T20:06:29.878Z,6.37
2019-05-19T20:09:00.209Z,6.30
2019-05-19T20:11:32.677Z,6.23
2019-05-19T20:14:03.094Z,6.70
2019-05-19T20:16:33.457Z,7.10
2019-05-19T20:19:03.834Z,7.30
2019-05-19T20:21:34.093Z,7.00
2019-05-19T20:24:04.552Z,7.10
2019-05-19T20:26:34.876Z,6.97
2019-05-19T20:29:05.339Z,7.40
2019-05-19T20:31:35.770Z,7.23
2019-05-19T20:34:06.222Z,7.50
2019-05-19T20:36:36.677Z,6.60
2019-05-19T20:39:07.836Z,6.90
2019-05-19T20:41:38.223Z,6.37
2019-05-19T20:44:08.789Z,6.23
2019-05-19T20:46:39.193Z,6.67
2019-05-19T20:49:09.559Z,6.33
2019-05-19T20:51:40.876Z,6.10
2019-05-19T20:54:11.843Z,6.23
2019-05-19T20:56:43.243Z,6.50
2019-05-19T20:59:13.556Z,6.00
2019-05-19T21:01:45.059Z,6.30
2019-05-19T21:04:16.208Z,6.87
2019-05-19T21:06:46.573Z,6.63
2019-05-19T21:09:16.851Z,6.53
2019-05-19T21:11:47.243Z,6.50
2019-05-19T21:14:17.661Z,6.67
2019-05-19T21:16:48.009Z,6.93
2019-05-19T21:19:18.448Z,6.60
2019-05-19T21:21:48.783Z,6.30
2019-05-19T21:24:19.213Z,6.63
2019-05-19T21:26:49.483Z,7.63
2019-05-19T21:29:19.836Z,6.90
2019-05-19T21:31:50.351Z,7.57
2019-05-19T21:34:20.625Z,6.80
2019-05-19T21:36:51.107Z,7.17
2019-05-19T21:39:21.447Z,7.60
2019-05-19T21:41:51.740Z,8.20
2019-05-19T21:44:22.123Z,7.67
2019-05-19T21:46:52.424Z,7.03
2019-05-19T21:49:22.789Z,7.47
2019-05-19T21:51:53.382Z,7.57
2019-05-19T21:54:23.808Z,7.67
2019-05-19T21:56:54.174Z,8.37
2019-05-19T21:59:24.584Z,7.53
2019-05-19T22:01:55.013Z,8.17
2019-05-19T22:04:25.295Z,7.90
2019-05-19T22:07:03.125Z,7.97
2019-05-19T22:09:33.502Z,8.10
2019-05-19T22:12:04.189Z,8.63
2019-05-19T22:14:34.598Z,9.03
2019-05-19T22:17:04.929Z,8.20
2019-05-19T22:19:35.214Z,8.70
2019-05-19T22:22:06.018Z,8.27
2019-05-19T22:24:36.260Z,8.60
2019-05-19T22:27:06.613Z,8.23
2019-05-19T22:29:36.952Z,9.07
2019-05-19T22:32:07.289Z,9.17
2019-05-19T22:34:38.920Z,8.70
2019-05-19T22:37:09.264Z,9.63
2019-05-19T22:39:39.682Z,8.73
2019-05-19T22:42:10.089Z,8.73
2019-05-19T22:44:40.476Z,9.20
2019-05-19T22:47:11.551Z,9.63
2019-05-19T22:49:41.880Z,9.30
2019-05-19T22:52:12.249Z,10.10
2019-05-19T22:54:42.607Z,8.60
2019-05-19T22:57:13.027Z,9.00
2019-05-19T22:59:43.351Z,9.77
2019-05-19T23:02:13.783Z,10.37
2019-05-19T23:04:44.152Z,10.27
2019-05-19T23:07:14.587Z,9.97
2019-05-19T23:09:44.875Z,9.63
2019-05-19T23:12:15.268Z,9.60
2019-05-19T23:14:45.698Z,9.10
2019-05-19T23:17:16.128Z,9.03
2019-05-19T23:19:46.484Z,9.67
2019-05-19T23:22:37.685Z,9.30
2019-05-19T23:25:08.232Z,10.13
2019-05-19T23:27:56.380Z,9.70
2019-05-19T23:30:26.677Z,10.30
2019-05-19T23:32:57.104Z,10.20
2019-05-19T23:35:27.478Z,10.23
2019-05-19T23:37:57.946Z,10.30
2019-05-19T23:40:28.428Z,10.57
2019-05-19T23:42:58.905Z,10.37
2019-05-19T23:45:29.326Z,11.20
2019-05-19T23:47:59.982Z,11.07
2019-05-19T23:50:30.381Z,11.70
2019-05-19T23:53:00.745Z,11.67
2019-05-19T23:55:31.030Z,12.70
2019-05-19T23:58:01.284Z,11.27
